Ontario, OR

3:17 PM MST on February 14, 2016 (GMT -0700)
Ontario Municipal | | Change Station
CLOSE
Current Station
Airport
Location: Ontario,
Elevation: 2192 ft
Nearby Weather Stations

Elev 2192 ft 44.02 °N, 117.01 °W | Updated 24 minutes ago

Overcast
Overcast
49 °F
Feels Like 49 °F
N
0
Wind Variable Wind from North

Today
High -- | Low -- °F
--% Chance of Precip.
Yesterday
High -- | Low -- °F
Precip. -- in
Pressure 30.28 in
Visibility 10.0 miles
Clouds Overcast 1300 ft
Dew Point 42 °F
Humidity 77%
Rainfall 0.10 in
Snow Depth Not available.
7:49 AM 6:15 PM
Waxing Crescent, 46% visible
METAR KONO 142153Z AUTO 00000KT 10SM OVC013 09/06 A3025 RMK AO2 RAB34E48 SLP253 P0000 T00940056
Pressure 30.28 in
Visibility 10.0 miles
Clouds Overcast 1300 ft
Dew Point 42 °F
Humidity 77%
Rainfall 0.10 in
Snow Depth Not available.
7:49 AM 6:15 PM
Waxing Crescent, 46% visible
METAR KONO 142153Z AUTO 00000KT 10SM OVC013 09/06 A3025 RMK AO2 RAB34E48 SLP253 P0000 T00940056

10-Day Weather Forecast

Almanac

Astronomy

Feb. 14, 2016 Rise Set
Actual Time
Civil Twilight
Nautical Twilight
Astronomical Twilight
Moon
Length of Visible Light
Length of Day
Tomorrow will be .
, % of the Moon is Illuminated

Today's Extremes

State Highs State Lows

Community

WunderPhotos

Upload Photos

1,892,893 photos uploaded!

WunderBlog® & News

Nearby

Air Quality

  Air Quality AQ Index Pollutant
Not available.

Snow Depth

Station Depth Elevation

Earthquake Activity

City Distance Mag. Time & Date
Minimum magnitude displayed is 2.5.

Coastal Water Temperatures

Place Temperature

Stations

Nearby Weather Stations

Station Location Temp. Windchill Dew Point Humidity Wind Precip. Elev Updated Type
                   

Watches & Warnings

There are currently no watches in effect.